Buckskin Joe, Colorado
Current Conditions -  °F | °C
As of 6:15 PM on Sunday 21 Dec 2014 (Local Time) from K1V6 Reporting Station
Clear Clear  
Wind Chill: 40°   Ceiling: Unl
Heat Index: 48°   Visibility: 10mi
Dew Point: 28°   Wind: 25mph
Humidity: 46%   Direction: 300°WNW
Pressure: 29.6"   Gusts: 32mph
Location:  38.533°N, 105.389°W
Report Text: K1V6 220115Z AUTO 30022G28KT 10SM CLR 09/M02 A2960 RMK AO2
Loading
Personal Weather Stations






























Interactive Weather Map New forecast layout! Learn more

10-Day Weather Forecast

Advertisements
Track Severe Weather on mobile